createdAt,value
2023-05-19T00:01:56.391Z,49.39
2023-05-19T00:04:23.966Z,49.49
2023-05-19T00:06:51.653Z,50.36
2023-05-19T00:09:19.422Z,50.66
2023-05-19T00:11:46.750Z,50.84
2023-05-19T00:14:14.283Z,51.24
2023-05-19T00:16:42.421Z,51.11
2023-05-19T00:19:09.579Z,51.42
2023-05-19T00:21:42.070Z,51.60
2023-05-19T00:24:09.613Z,51.17
2023-05-19T00:26:37.355Z,50.34
2023-05-19T00:29:05.413Z,49.25
2023-05-19T00:31:33.501Z,48.55
2023-05-19T00:34:01.313Z,48.04
2023-05-19T00:36:29.083Z,47.99
2023-05-19T00:38:56.765Z,47.67
2023-05-19T00:41:24.055Z,47.70
2023-05-19T00:43:50.991Z,47.40
2023-05-19T00:46:24.163Z,47.16
2023-05-19T00:48:51.112Z,47.06
2023-05-19T00:51:19.138Z,47.14
2023-05-19T00:53:48.763Z,46.95
2023-05-19T00:56:18.508Z,46.69
2023-05-19T00:58:45.512Z,46.95
2023-05-19T01:01:14.006Z,46.79
2023-05-19T01:03:42.392Z,46.83
2023-05-19T01:06:15.443Z,47.84
2023-05-19T01:08:43.161Z,48.40
2023-05-19T01:11:10.264Z,48.21
2023-05-19T01:13:42.964Z,47.91
2023-05-19T01:16:14.858Z,47.52
2023-05-19T01:18:42.170Z,47.51
2023-05-19T01:21:35.713Z,47.31
2023-05-19T01:24:17.401Z,47.39
2023-05-19T01:27:09.583Z,47.66
2023-05-19T01:30:14.656Z,47.71
2023-05-19T01:32:42.338Z,47.94
2023-05-19T01:35:09.399Z,47.90
2023-05-19T01:37:47.016Z,47.88
2023-05-19T01:40:14.268Z,47.91
2023-05-19T01:42:41.674Z,47.88
2023-05-19T01:45:10.193Z,47.92
2023-05-19T01:47:41.895Z,48.08
2023-05-19T01:50:09.761Z,48.39
2023-05-19T01:52:37.205Z,48.75
2023-05-19T01:55:05.207Z,49.17
2023-05-19T01:57:53.828Z,49.50
2023-05-19T02:00:54.267Z,49.89
2023-05-19T02:03:52.745Z,50.09
2023-05-19T02:06:36.669Z,50.41
2023-05-19T02:09:58.894Z,50.87
2023-05-19T02:12:28.824Z,51.33
2023-05-19T02:15:17.458Z,51.16
2023-05-19T02:17:50.301Z,51.70
2023-05-19T02:20:17.732Z,51.74
2023-05-19T02:22:45.321Z,51.73
2023-05-19T02:25:13.555Z,51.91
2023-05-19T02:27:41.409Z,52.19
2023-05-19T02:30:09.133Z,52.77
2023-05-19T02:32:37.740Z,53.15
2023-05-19T02:35:06.154Z,53.21
2023-05-19T02:37:34.945Z,53.37
2023-05-19T02:40:09.249Z,53.70
2023-05-19T02:42:36.705Z,53.80
2023-05-19T02:45:07.360Z,54.00
2023-05-19T02:47:37.093Z,54.41
2023-05-19T02:50:05.894Z,55.10
2023-05-19T02:52:32.796Z,55.59
2023-05-19T02:55:00.065Z,55.84
2023-05-19T02:57:28.496Z,55.95
2023-05-19T02:59:55.825Z,56.13
2023-05-19T03:02:23.059Z,56.41
2023-05-19T03:04:57.539Z,56.74
2023-05-19T03:07:24.634Z,56.98
2023-05-19T03:09:52.045Z,56.97
2023-05-19T03:12:24.108Z,57.01
2023-05-19T03:14:51.600Z,56.88
2023-05-19T03:17:18.762Z,56.82
2023-05-19T03:19:45.878Z,56.40
2023-05-19T03:22:13.222Z,56.26
2023-05-19T03:24:41.681Z,56.14
2023-05-19T03:27:08.565Z,55.74
2023-05-19T03:29:36.748Z,55.23
2023-05-19T03:32:03.949Z,54.52
2023-05-19T03:34:32.141Z,54.44
2023-05-19T03:36:59.203Z,54.65
2023-05-19T03:39:26.201Z,53.99
2023-05-19T03:41:53.184Z,53.89
2023-05-19T03:44:20.092Z,53.89
2023-05-19T03:46:47.086Z,53.84
2023-05-19T03:49:42.802Z,53.95
2023-05-19T03:52:15.235Z,53.79
2023-05-19T03:54:50.819Z,53.98
2023-05-19T03:57:19.623Z,54.03
2023-05-19T03:59:47.577Z,54.17
2023-05-19T04:02:14.562Z,54.13
2023-05-19T04:04:41.559Z,54.36
2023-05-19T04:07:08.515Z,54.27
2023-05-19T04:09:42.201Z,53.75
2023-05-19T04:12:09.255Z,53.78
2023-05-19T04:14:36.314Z,53.69
2023-05-19T04:17:03.502Z,53.34
2023-05-19T04:19:30.979Z,53.41
2023-05-19T04:21:58.261Z,53.46
2023-05-19T04:24:25.698Z,53.33
2023-05-19T04:26:53.072Z,53.04
2023-05-19T04:29:19.980Z,52.48
2023-05-19T04:31:48.536Z,52.22
2023-05-19T04:34:19.373Z,52.15
2023-05-19T04:36:46.484Z,51.86
2023-05-19T04:39:14.048Z,51.57
2023-05-19T04:41:44.308Z,51.49
2023-05-19T04:44:12.996Z,50.81
2023-05-19T04:46:39.899Z,50.56
2023-05-19T04:49:07.302Z,49.71
2023-05-19T04:51:35.300Z,49.29
2023-05-19T04:54:03.490Z,49.33
2023-05-19T04:56:36.314Z,49.13
2023-05-19T04:59:03.199Z,49.04
2023-05-19T05:01:32.537Z,49.04
2023-05-19T05:04:01.846Z,48.63
2023-05-19T05:06:31.210Z,48.51
2023-05-19T05:08:59.511Z,48.22
2023-05-19T05:11:27.148Z,48.18
2023-05-19T05:13:57.433Z,47.73
2023-05-19T05:16:26.063Z,47.45
2023-05-19T05:18:53.294Z,46.77
2023-05-19T05:21:20.579Z,46.68
2023-05-19T05:23:47.988Z,46.62
2023-05-19T05:26:19.252Z,46.26
2023-05-19T05:28:47.862Z,45.88
2023-05-19T05:31:15.600Z,45.63
2023-05-19T05:33:43.488Z,44.88
2023-05-19T05:36:10.688Z,45.03
2023-05-19T05:38:41.263Z,46.37
2023-05-19T05:41:08.978Z,46.40
2023-05-19T05:43:36.969Z,44.49
2023-05-19T05:46:04.405Z,44.11
2023-05-19T05:48:34.183Z,44.09
2023-05-19T05:51:01.864Z,43.19
2023-05-19T05:53:34.107Z,43.16
2023-05-19T05:56:01.979Z,42.98
2023-05-19T05:58:40.232Z,42.27
2023-05-19T06:01:10.526Z,41.91
2023-05-19T06:03:41.597Z,41.83
2023-05-19T06:06:08.720Z,41.78
2023-05-19T06:08:36.003Z,41.88
2023-05-19T06:11:09.855Z,41.26
2023-05-19T06:13:40.756Z,41.07
2023-05-19T06:16:09.399Z,41.35
2023-05-19T06:18:41.594Z,42.00
2023-05-19T06:21:09.741Z,41.83
2023-05-19T06:23:36.733Z,41.51
2023-05-19T06:26:04.413Z,40.87
2023-05-19T06:28:32.625Z,40.28
2023-05-19T06:30:59.840Z,40.07
2023-05-19T06:33:50.344Z,39.93
2023-05-19T06:36:17.217Z,40.65
2023-05-19T06:38:46.835Z,40.21
2023-05-19T06:41:14.564Z,39.99
2023-05-19T06:43:42.720Z,39.35
2023-05-19T06:46:14.022Z,38.67
2023-05-19T06:48:40.945Z,38.75
2023-05-19T06:51:09.784Z,38.22
2023-05-19T06:53:43.102Z,37.95
2023-05-19T06:56:10.046Z,38.25
2023-05-19T06:58:38.958Z,37.90
2023-05-19T07:01:06.534Z,36.96
2023-05-19T07:03:38.960Z,36.77
2023-05-19T07:06:08.331Z,36.65
2023-05-19T07:08:37.226Z,36.87
2023-05-19T07:11:05.056Z,36.44
2023-05-19T07:13:32.663Z,36.07
2023-05-19T07:15:59.493Z,35.82
2023-05-19T07:18:32.109Z,34.82
2023-05-19T07:20:59.112Z,35.22
2023-05-19T07:23:27.578Z,35.88
2023-05-19T07:25:55.935Z,35.13
2023-05-19T07:28:23.020Z,34.34
2023-05-19T07:30:50.102Z,33.90
2023-05-19T07:33:17.159Z,33.37
2023-05-19T07:35:45.155Z,33.53
2023-05-19T07:38:12.311Z,32.76
2023-05-19T07:40:39.219Z,33.53
2023-05-19T07:43:07.329Z,32.87
2023-05-19T07:45:34.439Z,33.43
2023-05-19T07:48:01.419Z,33.15
2023-05-19T07:50:28.642Z,32.90
2023-05-19T07:52:56.344Z,32.38
2023-05-19T07:55:23.345Z,31.90
2023-05-19T07:57:50.574Z,31.66
2023-05-19T08:00:18.491Z,31.76
2023-05-19T08:02:46.088Z,32.19
2023-05-19T08:05:13.366Z,31.74
2023-05-19T08:07:40.796Z,31.60
2023-05-19T08:10:08.036Z,31.41
2023-05-19T08:12:35.670Z,30.73
2023-05-19T08:15:02.655Z,30.55
2023-05-19T08:17:30.360Z,30.23
2023-05-19T08:19:57.228Z,29.56
2023-05-19T08:22:24.055Z,30.41
2023-05-19T08:24:51.213Z,29.94
2023-05-19T08:27:18.799Z,30.52
2023-05-19T08:29:45.926Z,30.38
2023-05-19T08:32:13.458Z,29.71
2023-05-19T08:34:41.041Z,29.48
2023-05-19T08:37:08.349Z,29.52
2023-05-19T08:39:36.422Z,28.22
2023-05-19T08:42:03.437Z,28.66
2023-05-19T08:44:30.675Z,28.17
2023-05-19T08:46:58.926Z,27.97
2023-05-19T08:49:28.847Z,27.64
2023-05-19T08:52:01.777Z,26.85
2023-05-19T08:54:33.389Z,25.60
2023-05-19T08:57:00.200Z,26.05
2023-05-19T08:59:27.173Z,26.25
2023-05-19T09:01:54.437Z,26.98
2023-05-19T09:04:21.726Z,27.03
2023-05-19T09:06:49.753Z,24.98
2023-05-19T09:09:17.036Z,24.48
2023-05-19T09:11:47.316Z,25.14
2023-05-19T09:14:14.395Z,24.22
2023-05-19T09:16:41.973Z,22.86
2023-05-19T09:19:14.744Z,22.94
2023-05-19T09:21:41.691Z,22.48
2023-05-19T09:24:09.394Z,22.03
2023-05-19T09:26:42.465Z,22.68
2023-05-19T09:29:13.578Z,21.61
2023-05-19T09:31:48.317Z,20.38
2023-05-19T09:34:17.543Z,20.61
2023-05-19T09:36:48.804Z,20.99
2023-05-19T09:39:16.233Z,20.62
2023-05-19T09:41:43.142Z,20.66
2023-05-19T09:44:20.916Z,19.81
2023-05-19T09:46:48.943Z,20.02
2023-05-19T09:49:29.784Z,20.95
2023-05-19T09:51:57.953Z,21.06
2023-05-19T09:54:25.789Z,21.42
2023-05-19T09:57:03.662Z,21.46
2023-05-19T09:59:33.361Z,20.86
2023-05-19T10:02:01.667Z,20.00
2023-05-19T10:04:29.687Z,19.23
2023-05-19T10:07:00.569Z,18.55
2023-05-19T10:09:28.648Z,18.45
2023-05-19T10:11:56.988Z,18.18
2023-05-19T10:14:25.404Z,18.00
2023-05-19T10:16:55.864Z,17.38
2023-05-19T10:19:29.453Z,15.98
2023-05-19T10:21:56.870Z,15.74
2023-05-19T10:24:24.193Z,15.10
2023-05-19T10:27:03.499Z,14.84
2023-05-19T10:29:33.202Z,14.96
2023-05-19T10:32:30.588Z,14.80
2023-05-19T10:35:10.087Z,14.86
2023-05-19T10:37:46.332Z,14.55
2023-05-19T10:40:30.319Z,14.23
2023-05-19T10:43:11.368Z,14.38
2023-05-19T10:45:48.912Z,14.64
2023-05-19T10:48:16.930Z,14.94
2023-05-19T10:50:45.915Z,15.68
2023-05-19T10:53:17.742Z,16.10
2023-05-19T10:55:48.762Z,16.76
2023-05-19T10:58:16.324Z,17.20
2023-05-19T11:00:43.285Z,17.52
2023-05-19T11:03:14.747Z,17.45
2023-05-19T11:05:45.176Z,17.43
2023-05-19T11:08:12.632Z,17.69
2023-05-19T11:10:39.885Z,17.89
2023-05-19T11:13:07.020Z,17.84
2023-05-19T11:15:38.345Z,17.36
2023-05-19T11:18:05.567Z,17.75
2023-05-19T11:20:34.523Z,17.28
2023-05-19T11:23:05.399Z,16.80
2023-05-19T11:25:41.937Z,15.73
2023-05-19T11:28:16.046Z,15.41
2023-05-19T11:30:43.669Z,15.33
2023-05-19T11:33:11.351Z,15.13
2023-05-19T11:35:39.302Z,15.05
2023-05-19T11:38:06.675Z,14.26
2023-05-19T11:40:34.559Z,14.28
2023-05-19T11:43:01.545Z,14.33
2023-05-19T11:45:30.681Z,14.32
2023-05-19T11:48:02.350Z,14.10
2023-05-19T11:50:32.818Z,14.29
2023-05-19T11:53:00.913Z,14.52
2023-05-19T11:55:28.828Z,14.63
2023-05-19T12:00:30.742Z,14.47
2023-05-19T12:02:57.607Z,14.74
2023-05-19T12:05:25.322Z,15.18
2023-05-19T12:07:53.174Z,15.75
2023-05-19T12:10:23.931Z,15.88
2023-05-19T12:12:51.144Z,15.91
2023-05-19T12:15:21.740Z,15.77
2023-05-19T12:17:59.820Z,15.21
2023-05-19T12:20:28.103Z,15.32
2023-05-19T12:22:55.151Z,14.72
2023-05-19T12:25:22.368Z,14.99
2023-05-19T12:27:52.239Z,15.35
2023-05-19T12:30:24.721Z,15.35
2023-05-19T12:32:53.693Z,15.50
2023-05-19T12:35:22.816Z,15.46
2023-05-19T12:37:51.872Z,15.44
2023-05-19T12:40:23.073Z,15.70
2023-05-19T12:42:52.886Z,16.26
2023-05-19T12:45:21.801Z,16.10
2023-05-19T12:47:48.897Z,16.01
2023-05-19T12:50:16.065Z,15.84
2023-05-19T12:52:44.708Z,15.15
2023-05-19T12:55:11.852Z,14.97
2023-05-19T12:57:41.183Z,14.49
2023-05-19T13:00:17.173Z,14.14
2023-05-19T13:03:04.497Z,13.86
2023-05-19T13:05:39.357Z,14.02
2023-05-19T13:08:10.634Z,14.09
2023-05-19T13:10:38.988Z,14.07
2023-05-19T13:13:08.303Z,14.51
2023-05-19T13:15:37.674Z,14.57
2023-05-19T13:18:07.963Z,15.26
2023-05-19T13:20:39.998Z,15.55
2023-05-19T13:23:06.913Z,15.61
2023-05-19T13:25:34.601Z,16.42
2023-05-19T13:28:04.807Z,16.53
2023-05-19T13:30:36.155Z,16.85
2023-05-19T13:33:03.636Z,16.92
2023-05-19T13:35:36.368Z,17.22
2023-05-19T13:38:09.146Z,17.43
2023-05-19T13:40:37.108Z,18.15
2023-05-19T13:43:04.158Z,19.02
2023-05-19T13:45:31.814Z,19.53
2023-05-19T13:47:58.981Z,19.83
2023-05-19T13:50:26.275Z,20.24
2023-05-19T13:52:53.397Z,20.56
2023-05-19T13:55:20.427Z,21.03
2023-05-19T13:57:47.492Z,21.13
2023-05-19T14:00:15.308Z,21.32
2023-05-19T14:02:42.574Z,21.36
2023-05-19T14:05:09.713Z,21.70
2023-05-19T14:07:36.925Z,21.66
2023-05-19T14:10:12.523Z,21.83
2023-05-19T14:12:55.258Z,21.87
2023-05-19T14:15:30.139Z,22.41
2023-05-19T14:17:58.355Z,21.86
2023-05-19T14:20:27.945Z,21.13
2023-05-19T14:23:01.836Z,20.98
2023-05-19T14:25:29.474Z,20.75
2023-05-19T14:27:56.401Z,20.52
2023-05-19T14:30:23.378Z,20.68
2023-05-19T14:32:50.605Z,20.69
2023-05-19T14:35:22.873Z,20.47
2023-05-19T14:37:50.564Z,20.56
2023-05-19T14:40:17.644Z,20.42
2023-05-19T14:42:44.596Z,20.34
2023-05-19T14:45:11.810Z,20.33
2023-05-19T14:47:39.927Z,20.46
2023-05-19T14:50:06.939Z,20.49
2023-05-19T14:52:34.324Z,20.84
2023-05-19T14:55:01.761Z,20.71
2023-05-19T14:57:28.920Z,20.91
2023-05-19T14:59:55.867Z,21.00
2023-05-19T15:02:22.805Z,21.48
2023-05-19T15:04:49.666Z,21.27
2023-05-19T15:07:16.828Z,21.38
2023-05-19T15:09:43.739Z,21.29
2023-05-19T15:12:15.646Z,21.18
2023-05-19T15:14:42.595Z,21.71
2023-05-19T15:17:10.155Z,21.64
2023-05-19T15:19:37.567Z,21.72
2023-05-19T15:22:05.261Z,21.64
2023-05-19T15:24:32.349Z,21.60
2023-05-19T15:27:00.297Z,21.62
2023-05-19T15:29:27.836Z,21.57
2023-05-19T15:32:00.027Z,21.66
2023-05-19T15:34:27.317Z,21.69
2023-05-19T15:36:54.326Z,21.78
2023-05-19T15:39:21.412Z,21.98
2023-05-19T15:41:50.240Z,21.98
2023-05-19T15:44:17.390Z,22.01
2023-05-19T15:46:44.355Z,22.07
2023-05-19T15:49:12.599Z,22.07
2023-05-19T15:51:40.385Z,22.11
2023-05-19T15:54:07.266Z,22.28
2023-05-19T15:56:34.493Z,22.37
2023-05-19T15:59:01.414Z,22.60
2023-05-19T16:01:28.443Z,22.84
2023-05-19T16:03:55.581Z,22.96
2023-05-19T16:06:24.088Z,23.32
2023-05-19T16:08:51.410Z,23.42
2023-05-19T16:11:20.163Z,23.68
2023-05-19T16:13:47.367Z,23.90
2023-05-19T16:16:14.376Z,23.94
2023-05-19T16:18:43.653Z,23.96
2023-05-19T16:21:11.171Z,24.06
2023-05-19T16:23:38.206Z,24.21
2023-05-19T16:26:05.079Z,24.41
2023-05-19T16:28:33.031Z,24.63
2023-05-19T16:31:00.143Z,24.73
2023-05-19T16:33:29.554Z,24.93
2023-05-19T16:35:58.196Z,25.02
2023-05-19T16:38:26.127Z,25.26
2023-05-19T16:40:58.105Z,25.55
2023-05-19T16:43:25.891Z,25.71
2023-05-19T16:45:53.010Z,25.90
2023-05-19T16:48:20.046Z,25.98
2023-05-19T16:50:50.128Z,26.16
2023-05-19T16:53:17.465Z,26.12
2023-05-19T16:55:44.392Z,26.34
2023-05-19T16:58:11.816Z,26.35
2023-05-19T17:00:38.862Z,26.53
2023-05-19T17:03:06.449Z,26.70
2023-05-19T17:05:35.753Z,27.00
2023-05-19T17:08:02.681Z,27.16
2023-05-19T17:10:29.905Z,27.27
2023-05-19T17:12:56.802Z,27.66
2023-05-19T17:15:23.879Z,27.80
2023-05-19T17:17:51.040Z,28.17
2023-05-19T17:20:17.959Z,28.41
2023-05-19T17:22:44.972Z,28.75
2023-05-19T17:25:11.904Z,28.94
2023-05-19T17:27:38.993Z,29.19
2023-05-19T17:30:07.085Z,29.30
2023-05-19T17:32:38.033Z,29.47
2023-05-19T17:35:06.196Z,29.62
2023-05-19T17:37:33.659Z,29.86
2023-05-19T17:40:00.654Z,29.87
2023-05-19T17:42:28.724Z,30.04
2023-05-19T17:44:55.554Z,30.19
2023-05-19T17:47:22.470Z,30.35
2023-05-19T17:49:52.469Z,30.39
2023-05-19T17:52:21.201Z,30.54
2023-05-19T17:54:48.520Z,30.69
2023-05-19T17:57:16.599Z,30.73
2023-05-19T17:59:43.957Z,30.98
2023-05-19T18:02:11.626Z,31.01
2023-05-19T18:04:39.474Z,31.18
2023-05-19T18:07:06.668Z,31.27
2023-05-19T18:09:39.223Z,31.40
2023-05-19T18:12:06.343Z,31.35
2023-05-19T18:14:34.375Z,31.54
2023-05-19T18:17:01.638Z,31.63
2023-05-19T18:19:28.761Z,31.68
2023-05-19T18:21:55.846Z,31.97
2023-05-19T18:24:22.732Z,31.94
2023-05-19T18:26:49.702Z,32.01
2023-05-19T18:29:16.989Z,32.42
2023-05-19T18:31:43.972Z,32.74
2023-05-19T18:34:10.921Z,33.10
2023-05-19T18:36:38.157Z,33.54
2023-05-19T18:39:05.103Z,33.95
2023-05-19T18:41:32.734Z,34.47
2023-05-19T18:43:59.665Z,34.71
2023-05-19T18:46:26.668Z,34.74
2023-05-19T18:48:53.658Z,35.00
2023-05-19T18:51:21.299Z,35.26
2023-05-19T18:53:54.700Z,35.47
2023-05-19T18:56:25.651Z,35.91
2023-05-19T18:58:53.652Z,36.21
2023-05-19T19:01:25.686Z,36.37
2023-05-19T19:03:52.837Z,36.87
2023-05-19T19:06:23.013Z,36.95
2023-05-19T19:08:51.230Z,37.28
2023-05-19T19:11:18.143Z,37.35
2023-05-19T19:13:45.755Z,37.15
2023-05-19T19:16:12.749Z,37.38
2023-05-19T19:18:40.131Z,37.40
2023-05-19T19:21:07.156Z,37.43
2023-05-19T19:23:34.384Z,37.56
2023-05-19T19:26:01.345Z,37.58
2023-05-19T19:28:28.512Z,37.77
2023-05-19T19:30:55.714Z,37.85
2023-05-19T19:33:22.749Z,37.92
2023-05-19T19:35:49.956Z,37.89
2023-05-19T19:38:16.950Z,37.93
2023-05-19T19:40:43.917Z,37.88
2023-05-19T19:43:10.796Z,37.87
2023-05-19T19:45:41.132Z,37.89
2023-05-19T19:48:07.970Z,37.94
2023-05-19T19:50:35.108Z,38.07
2023-05-19T19:53:02.161Z,38.15
2023-05-19T19:55:30.364Z,37.93
2023-05-19T19:57:57.552Z,37.97
2023-05-19T20:00:24.513Z,37.92
2023-05-19T20:03:03.062Z,38.30
2023-05-19T20:05:32.350Z,38.23
2023-05-19T20:07:59.511Z,38.20
2023-05-19T20:10:26.716Z,38.46
2023-05-19T20:12:53.969Z,38.64
2023-05-19T20:15:21.162Z,38.63
2023-05-19T20:17:48.498Z,38.78
2023-05-19T20:20:15.816Z,38.88
2023-05-19T20:22:46.221Z,38.83
2023-05-19T20:25:13.097Z,39.19
2023-05-19T20:27:40.198Z,39.34
2023-05-19T20:30:07.857Z,39.32
2023-05-19T20:32:35.415Z,39.44
2023-05-19T20:35:02.364Z,39.50
2023-05-19T20:37:29.592Z,39.50
2023-05-19T20:39:56.726Z,39.51
2023-05-19T20:42:29.937Z,39.55
2023-05-19T20:45:03.296Z,39.80
2023-05-19T20:47:30.919Z,39.97
2023-05-19T20:49:58.312Z,40.01
2023-05-19T20:52:31.504Z,40.21
2023-05-19T20:54:58.327Z,40.31
2023-05-19T20:57:27.166Z,40.12
2023-05-19T21:00:01.021Z,40.05
2023-05-19T21:02:28.124Z,39.87
2023-05-19T21:04:54.988Z,39.42
2023-05-19T21:07:22.131Z,39.04
2023-05-19T21:09:50.917Z,38.71
2023-05-19T21:12:18.494Z,38.35
2023-05-19T21:14:47.734Z,38.26
2023-05-19T21:17:20.973Z,38.22
2023-05-19T21:19:48.567Z,38.33
2023-05-19T21:22:17.042Z,38.34
2023-05-19T21:24:44.198Z,38.38
2023-05-19T21:27:11.465Z,38.69
2023-05-19T21:29:38.589Z,38.73
2023-05-19T21:32:05.649Z,38.84
2023-05-19T21:34:32.658Z,38.94
2023-05-19T21:37:00.070Z,39.35
2023-05-19T21:39:26.953Z,39.34
2023-05-19T21:41:53.914Z,39.65
2023-05-19T21:44:22.883Z,39.60
2023-05-19T21:46:49.810Z,39.68
2023-05-19T21:49:17.072Z,39.93
2023-05-19T21:51:43.972Z,39.79
2023-05-19T21:54:11.106Z,39.79
2023-05-19T21:56:38.237Z,40.12
2023-05-19T21:59:05.096Z,40.78
2023-05-19T22:01:33.262Z,40.78
2023-05-19T22:04:00.829Z,41.33
2023-05-19T22:06:27.792Z,41.68
2023-05-19T22:08:55.211Z,41.89
2023-05-19T22:11:23.513Z,42.03
2023-05-19T22:13:50.834Z,42.08
2023-05-19T22:16:17.702Z,42.26
2023-05-19T22:18:44.574Z,42.38
2023-05-19T22:21:11.533Z,42.72
2023-05-19T22:23:38.745Z,42.74
2023-05-19T22:26:06.694Z,42.77
2023-05-19T22:28:34.357Z,42.98
2023-05-19T22:31:01.265Z,43.37
2023-05-19T22:33:28.534Z,43.89
2023-05-19T22:35:55.737Z,44.19
2023-05-19T22:38:22.621Z,44.08
2023-05-19T22:40:49.774Z,44.27
2023-05-19T22:43:16.607Z,44.41
2023-05-19T22:45:43.500Z,44.40
2023-05-19T22:48:11.007Z,44.31
2023-05-19T22:50:38.867Z,44.60
2023-05-19T22:53:06.070Z,44.76
2023-05-19T22:55:33.847Z,45.17
2023-05-19T22:58:00.909Z,45.03
2023-05-19T23:00:27.870Z,45.03
2023-05-19T23:02:54.924Z,45.27
2023-05-19T23:05:22.262Z,45.36
2023-05-19T23:07:49.108Z,45.52
2023-05-19T23:10:16.184Z,45.69
2023-05-19T23:12:43.203Z,45.79
2023-05-19T23:15:10.505Z,46.72
2023-05-19T23:17:37.716Z,47.57
2023-05-19T23:20:05.393Z,47.50
2023-05-19T23:22:32.709Z,48.67
2023-05-19T23:25:05.025Z,48.76
2023-05-19T23:27:33.015Z,49.24
2023-05-19T23:30:00.738Z,48.62
2023-05-19T23:32:32.916Z,48.92
2023-05-19T23:35:12.214Z,49.05
2023-05-19T23:37:39.408Z,49.33
2023-05-19T23:40:07.765Z,49.50
2023-05-19T23:42:36.045Z,49.92
2023-05-19T23:45:09.082Z,50.60
2023-05-19T23:47:36.063Z,51.94
2023-05-19T23:50:03.122Z,52.39
2023-05-19T23:52:32.168Z,52.95
2023-05-19T23:54:59.100Z,54.20
2023-05-19T23:57:26.074Z,54.81
2023-05-19T23:59:53.012Z,55.34
